createdAt,value
2019-05-11T00:01:18.657Z,94.41
2019-05-11T00:06:24.101Z,94.63
2019-05-11T00:11:29.582Z,93.87
2019-05-11T00:16:35.010Z,94.36
2019-05-11T00:21:40.341Z,94.48
2019-05-11T00:26:45.678Z,94.63
2019-05-11T00:31:51.855Z,94.29
2019-05-11T00:36:57.402Z,94.55
2019-05-11T00:42:02.882Z,94.90
2019-05-11T00:47:08.286Z,93.67
2019-05-11T00:52:13.681Z,94.32
2019-05-11T00:57:18.977Z,94.04
2019-05-11T01:02:24.349Z,93.92
2019-05-11T01:07:29.866Z,93.15
2019-05-11T01:12:35.336Z,94.08
2019-05-11T01:17:40.665Z,94.29
2019-05-11T01:22:45.996Z,93.44
2019-05-11T01:27:51.585Z,94.00
2019-05-11T01:32:57.058Z,95.69
2019-05-11T01:38:02.394Z,97.52
2019-05-11T01:43:07.759Z,98.41
2019-05-11T01:48:13.158Z,99.00
2019-05-11T01:53:20.690Z,99.22
2019-05-11T01:58:26.686Z,98.80
2019-05-11T02:03:35.823Z,98.53
2019-05-11T02:08:41.782Z,97.71
2019-05-11T02:13:47.480Z,98.02
2019-05-11T02:18:55.718Z,98.00
2019-05-11T02:24:02.742Z,97.17
2019-05-11T02:29:08.955Z,97.05
2019-05-11T02:34:16.691Z,97.42
2019-05-11T02:39:23.717Z,97.41
2019-05-11T02:44:30.591Z,97.86
2019-05-11T02:49:38.742Z,97.79
2019-05-11T02:54:46.943Z,98.58
2019-05-11T02:59:52.767Z,99.29
2019-05-11T03:04:58.700Z,99.48
2019-05-11T03:10:06.211Z,99.24
2019-05-11T03:15:13.284Z,99.24
2019-05-11T03:20:20.732Z,99.77
2019-05-11T03:25:28.509Z,100.00
2019-05-11T03:30:35.855Z,100.00
2019-05-11T03:35:42.349Z,99.90
2019-05-11T03:40:48.901Z,99.60
2019-05-11T03:45:55.565Z,99.54
2019-05-11T03:51:05.863Z,99.41
2019-05-11T03:56:12.091Z,98.45
2019-05-11T04:01:18.359Z,98.75
2019-05-11T04:06:24.512Z,99.43
2019-05-11T04:11:30.895Z,99.56
2019-05-11T04:16:37.943Z,98.52
2019-05-11T04:21:44.942Z,96.98
2019-05-11T04:26:53.170Z,96.83
2019-05-11T04:32:00.220Z,97.30
2019-05-11T04:37:07.082Z,97.91
2019-05-11T04:42:15.424Z,97.38
2019-05-11T04:47:21.874Z,96.62
2019-05-11T04:52:37.231Z,96.48
2019-05-11T04:57:43.078Z,96.44
2019-05-11T05:02:50.741Z,96.32
2019-05-11T05:08:09.261Z,96.20
2019-05-11T05:13:10.589Z,95.87
2019-05-11T05:18:16.109Z,95.75
2019-05-11T05:23:22.940Z,95.99
2019-05-11T05:28:29.334Z,96.15
2019-05-11T05:33:35.444Z,95.90
2019-05-11T05:38:42.622Z,96.25
2019-05-11T05:43:49.055Z,96.76
2019-05-11T05:48:55.124Z,96.44
2019-05-11T05:54:01.495Z,96.26
2019-05-11T05:59:07.876Z,96.04
2019-05-11T06:04:15.019Z,96.01
2019-05-11T06:09:21.412Z,96.09
2019-05-11T06:14:27.306Z,96.49
2019-05-11T06:19:35.537Z,96.92
2019-05-11T06:24:42.775Z,97.15
2019-05-11T06:29:49.890Z,97.94
2019-05-11T06:34:55.449Z,98.04
2019-05-11T06:40:01.567Z,98.29
2019-05-11T06:45:10.032Z,98.63
2019-05-11T06:50:17.690Z,99.26
2019-05-11T06:55:25.989Z,99.56
2019-05-11T07:00:32.692Z,100.00
2019-05-11T07:05:38.050Z,99.72
2019-05-11T07:10:45.531Z,100.00
2019-05-11T07:15:52.834Z,100.00
2019-05-11T07:20:59.508Z,99.61
2019-05-11T07:26:06.595Z,98.65
2019-05-11T07:31:16.511Z,98.66
2019-05-11T07:36:23.710Z,97.73
2019-05-11T07:41:30.498Z,99.18
2019-05-11T07:46:37.705Z,97.78
2019-05-11T07:51:44.631Z,97.03
2019-05-11T07:56:51.250Z,97.60
2019-05-11T08:02:14.030Z,96.81
2019-05-11T08:07:20.304Z,96.63
2019-05-11T08:12:28.482Z,97.35
2019-05-11T08:17:37.937Z,97.55
2019-05-11T08:22:43.750Z,96.76
2019-05-11T08:27:51.066Z,95.16
2019-05-11T08:32:58.456Z,95.27
2019-05-11T08:38:05.555Z,94.98
2019-05-11T08:43:11.102Z,93.84
2019-05-11T08:48:18.547Z,93.38
2019-05-11T08:53:25.497Z,94.33
2019-05-11T08:58:34.434Z,91.03
2019-05-11T09:03:41.814Z,87.64
2019-05-11T09:08:49.489Z,87.64
2019-05-11T09:13:57.853Z,88.21
2019-05-11T09:19:05.362Z,84.44
2019-05-11T09:24:12.530Z,83.87
2019-05-11T09:29:19.870Z,80.65
2019-05-11T09:34:28.853Z,79.05
2019-05-11T09:39:34.719Z,76.48
2019-05-11T09:44:41.438Z,77.44
2019-05-11T09:49:50.847Z,77.33
2019-05-11T09:54:58.018Z,79.31
2019-05-11T10:00:04.355Z,77.96
2019-05-11T10:05:11.486Z,75.63
2019-05-11T10:10:18.848Z,77.48
2019-05-11T10:15:27.792Z,79.54
2019-05-11T10:20:34.915Z,76.97
2019-05-11T10:25:41.267Z,74.09
2019-05-11T10:30:48.771Z,72.92
2019-05-11T10:35:55.402Z,71.81
2019-05-11T10:41:02.037Z,66.97
2019-05-11T10:46:18.771Z,64.24
2019-05-11T10:51:18.355Z,63.77
2019-05-11T10:56:25.662Z,65.41
2019-05-11T11:01:32.969Z,68.56
2019-05-11T11:06:40.326Z,66.29
2019-05-11T11:11:50.535Z,66.29
2019-05-11T11:17:00.433Z,67.38
2019-05-11T11:22:30.301Z,65.72
2019-05-11T11:27:19.386Z,63.39
2019-05-11T11:32:27.824Z,61.32
2019-05-11T11:37:34.366Z,57.98
2019-05-11T11:42:41.119Z,57.66
2019-05-11T11:47:49.343Z,59.13
2019-05-11T11:52:57.819Z,60.38
2019-05-11T11:58:05.106Z,56.49
2019-05-11T12:03:10.958Z,56.49
2019-05-11T12:08:18.831Z,55.12
2019-05-11T12:13:27.480Z,57.06
2019-05-11T12:18:34.155Z,57.48
2019-05-11T12:23:40.746Z,57.13
2019-05-11T12:28:49.061Z,58.72
2019-05-11T12:34:05.800Z,56.12
2019-05-11T12:39:12.793Z,56.90
2019-05-11T12:44:19.226Z,54.27
2019-05-11T12:49:28.911Z,54.78
2019-05-11T12:54:35.306Z,53.32
2019-05-11T12:59:40.726Z,53.03
2019-05-11T13:04:47.981Z,54.05
2019-05-11T13:09:53.751Z,54.14
2019-05-11T13:15:02.527Z,53.55
2019-05-11T13:20:13.045Z,53.52
2019-05-11T13:25:19.185Z,53.72
2019-05-11T13:30:27.820Z,54.37
2019-05-11T13:35:33.874Z,52.49
2019-05-11T13:40:39.927Z,52.13
2019-05-11T13:45:47.778Z,56.56
2019-05-11T13:50:53.965Z,56.24
2019-05-11T13:56:00.178Z,56.85
2019-05-11T14:01:08.085Z,53.72
2019-05-11T14:06:15.506Z,52.81
2019-05-11T14:11:21.275Z,53.21
2019-05-11T14:16:27.835Z,54.39
2019-05-11T14:21:34.747Z,56.15
2019-05-11T14:26:40.671Z,56.29
2019-05-11T14:31:48.869Z,57.30
2019-05-11T14:36:55.125Z,55.97
2019-05-11T14:42:01.426Z,55.38
2019-05-11T14:47:08.536Z,59.42
2019-05-11T14:52:14.974Z,58.98
2019-05-11T14:57:21.589Z,57.65
2019-05-11T15:02:37.797Z,59.94
2019-05-11T15:07:43.680Z,60.01
2019-05-11T15:12:50.083Z,60.52
2019-05-11T15:17:58.160Z,62.51
2019-05-11T15:23:05.013Z,65.10
2019-05-11T15:28:11.173Z,64.63
2019-05-11T15:33:18.321Z,65.63
2019-05-11T15:38:24.806Z,66.34
2019-05-11T15:43:31.325Z,66.82
2019-05-11T15:48:58.448Z,68.83
2019-05-11T15:53:53.550Z,69.36
2019-05-11T15:58:59.058Z,68.67
2019-05-11T16:04:05.059Z,69.64
2019-05-11T16:09:13.874Z,70.84
2019-05-11T16:14:19.627Z,70.69
2019-05-11T16:19:27.985Z,70.32
2019-05-11T16:24:34.126Z,71.80
2019-05-11T16:29:40.595Z,71.15
2019-05-11T16:34:46.974Z,71.05
2019-05-11T16:39:53.610Z,71.80
2019-05-11T16:45:00.063Z,72.50
2019-05-11T16:50:08.378Z,71.73
2019-05-11T16:55:15.350Z,72.92
2019-05-11T17:00:22.789Z,73.60
2019-05-11T17:05:33.253Z,73.54
2019-05-11T17:10:36.625Z,73.40
2019-05-11T17:15:43.323Z,75.13
2019-05-11T17:20:49.267Z,75.14
2019-05-11T17:25:57.923Z,75.10
2019-05-11T17:31:03.542Z,75.71
2019-05-11T17:36:09.366Z,75.52
2019-05-11T17:41:15.035Z,75.90
2019-05-11T17:46:22.204Z,76.64
2019-05-11T17:51:28.621Z,76.73
2019-05-11T17:56:35.345Z,77.49
2019-05-11T18:01:42.023Z,77.97
2019-05-11T18:06:48.503Z,78.06
2019-05-11T18:11:54.825Z,78.48
2019-05-11T18:17:00.891Z,78.73
2019-05-11T18:22:08.316Z,78.76
2019-05-11T18:27:14.532Z,79.60
2019-05-11T18:32:20.471Z,79.92
2019-05-11T18:37:28.094Z,79.83
2019-05-11T18:42:33.928Z,80.75
2019-05-11T18:47:39.968Z,80.52
2019-05-11T18:52:48.576Z,81.34
2019-05-11T18:57:53.751Z,81.87
2019-05-11T19:02:59.650Z,82.57
2019-05-11T19:08:06.005Z,82.26
2019-05-11T19:13:11.583Z,82.72
2019-05-11T19:18:17.868Z,83.50
2019-05-11T19:23:23.630Z,83.78
2019-05-11T19:28:30.324Z,84.07
2019-05-11T19:33:38.208Z,84.69
2019-05-11T19:38:43.804Z,84.99
2019-05-11T19:43:50.517Z,85.48
2019-05-11T19:48:58.110Z,85.94
2019-05-11T19:54:04.489Z,86.08
2019-05-11T19:59:10.689Z,86.65
2019-05-11T20:04:18.807Z,87.04
2019-05-11T20:09:28.311Z,87.36
2019-05-11T20:14:34.044Z,87.71
2019-05-11T20:19:40.789Z,87.80
2019-05-11T20:24:47.657Z,88.29
2019-05-11T20:29:54.419Z,89.17
2019-05-11T20:35:00.911Z,90.58
2019-05-11T20:40:09.088Z,91.32
2019-05-11T20:45:14.389Z,92.08
2019-05-11T20:50:20.600Z,92.67
2019-05-11T20:55:28.436Z,92.33
2019-05-11T21:00:35.630Z,91.40
2019-05-11T21:05:42.481Z,90.95
2019-05-11T21:10:49.049Z,90.57
2019-05-11T21:15:55.929Z,90.92
2019-05-11T21:21:01.550Z,91.18
2019-05-11T21:26:09.973Z,91.09
2019-05-11T21:31:18.635Z,91.23
2019-05-11T21:36:24.450Z,91.46
2019-05-11T21:41:31.236Z,91.39
2019-05-11T21:46:38.870Z,90.95
2019-05-11T21:51:45.468Z,90.83
2019-05-11T21:56:51.120Z,90.92
2019-05-11T22:01:57.562Z,91.32
2019-05-11T22:07:03.743Z,91.59
2019-05-11T22:12:10.782Z,91.37
2019-05-11T22:17:18.194Z,91.36
2019-05-11T22:22:28.534Z,91.54
2019-05-11T22:27:33.809Z,91.40
2019-05-11T22:32:39.449Z,91.48
2019-05-11T22:37:45.829Z,91.39
2019-05-11T22:42:53.103Z,91.28
2019-05-11T22:48:00.048Z,91.18
2019-05-11T22:53:05.530Z,91.25
2019-05-11T22:58:11.723Z,91.68
2019-05-11T23:03:19.878Z,92.02
2019-05-11T23:08:26.401Z,92.18
2019-05-11T23:13:33.622Z,92.25
2019-05-11T23:18:41.168Z,92.37
2019-05-11T23:23:47.892Z,92.48
2019-05-11T23:28:53.943Z,92.81
2019-05-11T23:33:59.821Z,93.03
2019-05-11T23:39:08.972Z,93.16
2019-05-11T23:44:14.461Z,93.10
2019-05-11T23:49:20.581Z,93.77
2019-05-11T23:54:27.795Z,94.09
2019-05-11T23:59:34.209Z,95.01
